Aviation Digital Data Service (ADDS)

Output produced by METARs form (2026 UTC 20 July 2017)
found at http://www.aviationweather.gov/adds/metars/
 
METAR text: KVIH 201953Z AUTO 22006KT 10SM CLR 34/22 A3005 RMK AO2 SLP161 T03390217
Conditions at: KVIH (VICHY/ROLLA , MO, US) observed 1953 UTC 20 July 2017
Temperature: 33.9°C (93°F)
Dewpoint: 21.7°C (71°F) [RH = 49%]
Pressure (altimeter): 30.05 inches Hg (1017.7 mb)
[Sea-level pressure: 1016.1 mb]
Winds: from the SW (220 degrees) at 7 MPH (6 knots; 3.1 m/s)
Visibility: 10 or more miles (16+ km)
Ceiling: at least 12,000 feet AGL
Clouds: sky clear below 12,000 feet AGL
Weather: automated observation with no human augmentation;
there may or may not be significant weather present at this time